Time;durP1;ratioP1;P1;durP2;ratioP2;P2;SDS_P1;SDS_P2;PMS_P1;PMS_P2;Temp;Humidity;BMP_temperature;BMP_pressure;BME280_temperature;BME280_humidity;BME280_pressure;Samples;Min_cycle;Max_cycle;Signal;HPM_P1;HPM_P2
2023/02/02 00:00:08;;;;;;;1999.90;999.90;;;4.90;99.90;;;;;;5095107;28;20020;-71
2023/02/02 00:02:34;;;;;;;1999.90;999.90;;;4.90;99.90;;;;;;5095144;28;20520;-80
2023/02/02 00:04:59;;;;;;;1999.90;999.90;;;5.00;99.90;;;;;;5094746;28;20024;-71
2023/02/02 00:07:25;;;;;;;1999.90;999.90;;;5.00;99.90;;;;;;5076880;28;20109;-71
2023/02/02 00:09:50;;;;;;;1999.90;999.90;;;5.10;99.90;;;;;;5094735;28;20028;-71
2023/02/02 00:12:16;;;;;;;1999.90;999.90;;;5.10;99.90;;;;;;5094639;28;20081;-71
2023/02/02 00:14:41;;;;;;;1999.90;999.90;;;5.00;99.90;;;;;;5094805;28;20099;-71
2023/02/02 00:17:09;;;;;;;1999.90;999.90;;;5.00;99.90;;;;;;5094796;28;20040;-71
2023/02/02 00:19:35;;;;;;;1999.90;999.90;;;5.10;99.90;;;;;;5079937;28;20070;-71
2023/02/02 00:22:01;;;;;;;1999.90;999.90;;;5.10;99.90;;;;;;5053179;28;20025;-71
2023/02/02 00:24:26;;;;;;;1999.90;999.90;;;5.20;99.90;;;;;;5072634;28;20055;-79
2023/02/02 00:26:56;;;;;;;1999.90;999.90;;;5.40;99.90;;;;;;5074135;28;20037;-80
2023/02/02 00:29:27;;;;;;;1999.90;999.90;;;5.40;99.90;;;;;;5074069;28;20024;-71
2023/02/02 00:31:53;;;;;;;1999.90;999.90;;;5.40;99.90;;;;;;5074578;28;20036;-71
2023/02/02 00:34:20;;;;;;;1999.90;999.90;;;5.50;99.90;;;;;;5074120;28;20036;-80
2023/02/02 00:36:46;;;;;;;1999.90;999.90;;;5.50;99.90;;;;;;5079441;28;20488;-71
2023/02/02 00:39:17;;;;;;;1999.90;999.90;;;5.50;99.90;;;;;;5093606;28;20399;-71
2023/02/02 00:41:43;;;;;;;1999.90;999.90;;;5.50;99.90;;;;;;5094364;28;20024;-71
2023/02/02 00:46:53;;;;;;;1999.90;999.90;;;5.40;99.90;;;;;;5094380;28;20503;-71
2023/02/02 00:49:18;;;;;;;1999.90;999.90;;;5.50;99.90;;;;;;5093434;28;20063;-71
2023/02/02 00:51:44;;;;;;;1999.90;999.90;;;5.50;99.90;;;;;;5093729;28;20042;-71
2023/02/02 00:54:09;;;;;;;1999.90;999.90;;;5.50;99.90;;;;;;5094232;28;20035;-71
2023/02/02 00:56:35;;;;;;;1999.90;999.90;;;5.50;99.90;;;;;;5093912;28;20082;-80
2023/02/02 00:59:01;;;;;;;1999.90;999.90;;;5.50;99.90;;;;;;5093751;28;20020;-71
2023/02/02 01:01:27;;;;;;;1999.90;999.90;;;5.40;99.90;;;;;;5093735;28;20027;-71
2023/02/02 01:03:53;;;;;;;1999.90;999.90;;;5.40;99.90;;;;;;5094174;28;20021;-71
2023/02/02 01:06:19;;;;;;;1999.90;999.90;;;5.30;99.90;;;;;;5093690;28;20044;-71
2023/02/02 01:08:44;;;;;;;1999.90;999.90;;;5.30;99.90;;;;;;5093635;28;20103;-71
2023/02/02 01:11:10;;;;;;;1999.90;999.90;;;5.30;99.90;;;;;;5093378;28;20028;-78
2023/02/02 01:13:36;;;;;;;1999.90;999.90;;;5.30;99.90;;;;;;5093594;28;20399;-71
2023/02/02 01:16:02;;;;;;;1999.90;999.90;;;5.30;99.90;;;;;;5093853;28;20024;-71
2023/02/02 01:18:28;;;;;;;1999.90;999.90;;;5.30;99.90;;;;;;5087809;28;20016;-71
2023/02/02 01:20:58;;;;;;;1999.90;999.90;;;5.40;99.90;;;;;;5073099;28;20447;-80
2023/02/02 01:23:23;;;;;;;1999.90;999.90;;;5.40;99.90;;;;;;5073242;28;20099;-71
2023/02/02 01:25:54;;;;;;;1999.90;999.90;;;5.30;99.90;;;;;;5073353;28;20100;-81
2023/02/02 01:28:20;;;;;;;1999.90;999.90;;;5.20;99.90;;;;;;5073082;28;20408;-71
2023/02/02 01:30:45;;;;;;;1999.90;999.90;;;5.20;99.90;;;;;;5072730;28;20028;-71
2023/02/02 01:33:11;;;;;;;1999.90;999.90;;;5.20;99.90;;;;;;5073028;28;20507;-71
2023/02/02 01:35:36;;;;;;;1999.90;999.90;;;5.20;99.90;;;;;;5073309;28;20064;-71
2023/02/02 01:38:02;;;;;;;1999.90;999.90;;;5.20;99.90;;;;;;5090757;28;20046;-72
2023/02/02 01:40:27;;;;;;;1999.90;999.90;;;5.30;99.90;;;;;;5093059;28;20020;-71
2023/02/02 01:42:53;;;;;;;1999.90;999.90;;;5.30;99.90;;;;;;5092777;28;20016;-71
2023/02/02 01:45:26;;;;;;;1999.90;999.90;;;5.40;99.90;;;;;;5074526;28;20047;-72
2023/02/02 01:47:56;;;;;;;1999.90;999.90;;;5.40;99.90;;;;;;5093030;28;20048;-71
2023/02/02 01:50:28;;;;;;;1999.90;999.90;;;5.40;99.90;;;;;;5092153;28;20024;-71
2023/02/02 01:52:57;;;;;;;1999.90;999.90;;;5.40;99.90;;;;;;5092610;28;20039;-71
2023/02/02 01:55:25;;;;;;;1999.90;999.90;;;5.50;99.90;;;;;;5092896;28;20493;-70
2023/02/02 01:57:56;;;;;;;1999.90;999.90;;;5.60;99.90;;;;;;5092675;28;20028;-71
2023/02/02 02:00:25;;;;;;;1999.90;999.90;;;5.70;99.90;;;;;;5091045;28;20032;-71
2023/02/02 02:02:55;;;;;;;1999.90;999.90;;;5.80;99.90;;;;;;5092338;28;20020;-71
2023/02/02 02:05:31;;;;;;;1999.90;999.90;;;5.80;99.90;;;;;;5092738;28;20027;-71
2023/02/02 02:08:07;;;;;;;1999.90;999.90;;;5.80;99.90;;;;;;5092890;28;20145;-71
2023/02/02 02:10:33;;;;;;;1999.90;999.90;;;5.80;99.90;;;;;;5092438;28;20028;-80
2023/02/02 02:12:59;;;;;;;1999.90;999.90;;;5.70;99.90;;;;;;5092168;28;20161;-71
2023/02/02 02:19:04;;;;;;;1999.90;999.90;;;5.70;99.90;;;;;;5089690;28;20061;-71
2023/02/02 02:28:11;;;;;;;1999.90;999.90;;;5.80;99.90;;;;;;4990719;28;20041;-80
2023/02/02 02:31:15;;;;;;;1999.90;999.90;;;5.90;99.90;;;;;;4990732;28;20407;-80
2023/02/02 02:33:49;;;;;;;1999.90;999.90;;;5.90;99.90;;;;;;4990677;28;20035;-71
2023/02/02 02:36:56;;;;;;;1999.90;999.90;;;5.90;99.90;;;;;;4992901;28;20040;-72
2023/02/02 02:39:41;;;;;;;1999.90;999.90;;;5.90;99.90;;;;;;5007071;28;20192;-71
2023/02/02 02:42:12;;;;;;;1999.90;999.90;;;5.90;99.90;;;;;;5010664;28;20506;-71
2023/02/02 02:44:37;;;;;;;1999.90;999.90;;;5.90;99.90;;;;;;5009553;28;20443;-71
2023/02/02 02:47:03;;;;;;;1999.90;999.90;;;5.90;99.90;;;;;;5006790;28;20045;-71
2023/02/02 02:49:29;;;;;;;1999.90;999.90;;;5.90;99.90;;;;;;5009955;28;20041;-79
2023/02/02 02:51:55;;;;;;;1999.90;999.90;;;5.80;99.90;;;;;;5009638;28;20093;-71
2023/02/02 02:54:33;;;;;;;1999.90;999.90;;;5.80;99.90;;;;;;5017621;28;20087;-71
2023/02/02 02:57:05;;;;;;;1999.90;999.90;;;5.80;99.90;;;;;;5091566;28;20846;-71
2023/02/02 02:59:55;;;;;;;1999.90;999.90;;;5.80;99.90;;;;;;5088583;28;20036;-71
2023/02/02 03:02:40;;;;;;;1999.90;999.90;;;5.80;99.90;;;;;;5069475;28;20028;-71
2023/02/02 03:05:47;;;;;;;1999.90;999.90;;;5.90;99.90;;;;;;5091359;28;20044;-71
2023/02/02 03:08:36;;;;;;;1999.90;999.90;;;5.90;99.90;;;;;;5092075;28;20028;-71
2023/02/02 03:11:05;;;;;;;1999.90;999.90;;;5.90;99.90;;;;;;5091434;28;20046;-71
2023/02/02 03:13:31;;;;;;;1999.90;999.90;;;5.90;99.90;;;;;;5090447;28;20047;-71
2023/02/02 03:15:57;;;;;;;1999.90;999.90;;;5.90;99.90;;;;;;5091931;28;20392;-71
2023/02/02 03:18:27;;;;;;;1999.90;999.90;;;5.80;99.90;;;;;;5071178;28;20054;-71
2023/02/02 03:20:53;;;;;;;1999.90;999.90;;;5.80;99.90;;;;;;5071540;28;20020;-71
2023/02/02 03:23:18;;;;;;;1999.90;999.90;;;5.70;99.90;;;;;;5071554;28;20039;-71
2023/02/02 03:25:44;;;;;;;1999.90;999.90;;;5.90;99.90;;;;;;5071226;28;20025;-71
2023/02/02 03:28:10;;;;;;;1999.90;999.90;;;5.80;99.90;;;;;;5071320;28;20033;-71
2023/02/02 03:30:38;;;;;;;1999.90;999.90;;;5.80;99.90;;;;;;5071508;28;20060;-80
2023/02/02 03:33:05;;;;;;;1999.90;999.90;;;5.80;99.90;;;;;;5071528;28;20199;-71
2023/02/02 03:35:30;;;;;;;1999.90;999.90;;;5.90;99.90;;;;;;5071190;28;20472;-71
2023/02/02 03:37:56;;;;;;;1999.90;999.90;;;5.80;99.90;;;;;;5087930;28;20107;-71
2023/02/02 03:40:22;;;;;;;1999.90;999.90;;;5.70;99.90;;;;;;5090765;28;20021;-71
2023/02/02 03:42:48;;;;;;;1999.90;999.90;;;5.70;99.90;;;;;;5091443;28;20396;-71
2023/02/02 03:45:13;;;;;;;1999.90;999.90;;;5.60;99.90;;;;;;5084405;28;20052;-71
2023/02/02 03:47:39;;;;;;;1999.90;999.90;;;5.70;99.90;;;;;;5092077;28;20495;-71
2023/02/02 03:50:06;;;;;;;1999.90;999.90;;;5.60;99.90;;;;;;5073570;28;20120;-71
2023/02/02 03:52:32;;;;;;;1999.90;999.90;;;5.50;99.90;;;;;;5090739;28;20031;-71
2023/02/02 03:54:57;;;;;;;1999.90;999.90;;;5.50;99.90;;;;;;5091290;28;20028;-80
2023/02/02 03:57:23;;;;;;;1999.90;999.90;;;5.50;99.90;;;;;;5091019;28;20037;-80
2023/02/02 03:59:48;;;;;;;1999.90;999.90;;;5.50;99.90;;;;;;5091639;28;20047;-71
2023/02/02 04:02:14;;;;;;;1999.90;999.90;;;5.50;99.90;;;;;;5091569;28;20087;-81
2023/02/02 04:04:40;;;;;;;1999.90;999.90;;;5.50;99.90;;;;;;5091262;28;20024;-71
2023/02/02 04:07:05;;;;;;;1999.90;999.90;;;5.50;99.90;;;;;;5090816;28;20547;-72
2023/02/02 04:09:31;;;;;;;1999.90;999.90;;;5.60;99.90;;;;;;5091461;28;20035;-80
2023/02/02 04:11:56;;;;;;;1999.90;999.90;;;5.60;99.90;;;;;;5092484;28;20047;-71
2023/02/02 04:14:22;;;;;;;1999.90;999.90;;;5.60;99.90;;;;;;5094928;28;20031;-71
2023/02/02 04:16:48;;;;;;;1999.90;999.90;;;5.60;99.90;;;;;;5093838;28;20043;-80
2023/02/02 04:19:13;;;;;;;1999.90;999.90;;;5.70;99.90;;;;;;5083276;28;20078;-80
2023/02/02 04:21:39;;;;;;;1999.90;999.90;;;5.70;99.90;;;;;;5074637;28;20547;-80
2023/02/02 04:24:08;;;;;;;1999.90;999.90;;;5.80;99.90;;;;;;5074617;28;20090;-71
2023/02/02 04:26:34;;;;;;;1999.90;999.90;;;5.90;99.90;;;;;;5073878;28;20493;-71
2023/02/02 04:29:00;;;;;;;1999.90;999.90;;;5.90;99.90;;;;;;5053242;28;20032;-71
2023/02/02 04:31:26;;;;;;;1999.90;999.90;;;6.00;99.90;;;;;;5072594;28;20031;-71
2023/02/02 04:33:52;;;;;;;1999.90;999.90;;;6.00;99.90;;;;;;5074575;28;20052;-71
2023/02/02 04:36:17;;;;;;;1999.90;999.90;;;6.00;99.90;;;;;;5076663;28;20589;-79
2023/02/02 04:38:43;;;;;;;1999.90;999.90;;;5.90;99.90;;;;;;5075275;28;20032;-71
2023/02/02 04:41:10;;;;;;;1999.90;999.90;;;6.00;99.90;;;;;;5094110;28;20438;-80
2023/02/02 04:43:37;;;;;;;1999.90;999.90;;;5.90;99.90;;;;;;5094571;28;20086;-72
2023/02/02 04:46:03;;;;;;;1999.90;999.90;;;5.90;99.90;;;;;;5094306;28;20055;-71
2023/02/02 04:48:29;;;;;;;1999.90;999.90;;;5.90;99.90;;;;;;5093965;28;20447;-71
2023/02/02 04:50:59;;;;;;;1999.90;999.90;;;5.90;99.90;;;;;;5094096;28;20356;-71
2023/02/02 04:53:28;;;;;;;1999.90;999.90;;;5.90;99.90;;;;;;5093484;28;20027;-71
2023/02/02 04:55:54;;;;;;;1999.90;999.90;;;5.90;99.90;;;;;;5093006;28;20028;-71
2023/02/02 04:58:20;;;;;;;1999.90;999.90;;;5.90;99.90;;;;;;5093598;28;20076;-80
2023/02/02 05:00:45;;;;;;;1999.90;999.90;;;5.80;99.90;;;;;;5091349;28;20031;-71
2023/02/02 05:03:11;;;;;;;1999.90;999.90;;;5.90;99.90;;;;;;5070939;28;20028;-71
2023/02/02 05:05:37;;;;;;;1999.90;999.90;;;6.00;99.90;;;;;;5093888;28;20016;-71
2023/02/02 05:08:03;;;;;;;1999.90;999.90;;;6.00;99.90;;;;;;5093738;28;20048;-71
2023/02/02 05:10:29;;;;;;;1999.90;999.90;;;6.00;99.90;;;;;;5093652;28;20028;-80
2023/02/02 05:12:55;;;;;;;1999.90;999.90;;;6.10;99.90;;;;;;5093225;28;20399;-71
2023/02/02 05:15:21;;;;;;;1999.90;999.90;;;6.10;99.90;;;;;;5093844;28;20337;-71
2023/02/02 05:17:48;;;;;;;1999.90;999.90;;;6.00;99.90;;;;;;5093402;28;20101;-71
2023/02/02 05:20:14;;;;;;;1999.90;999.90;;;6.00;99.90;;;;;;5073129;28;20052;-71
2023/02/02 05:22:40;;;;;;;1999.90;999.90;;;6.00;99.90;;;;;;5089381;28;20105;-71
2023/02/02 05:25:07;;;;;;;1999.90;999.90;;;6.20;99.90;;;;;;5093431;28;20016;-80
2023/02/02 05:27:33;;;;;;;1999.90;999.90;;;6.20;99.90;;;;;;5091954;28;20054;-71
2023/02/02 05:29:58;;;;;;;1999.90;999.90;;;6.30;99.90;;;;;;5093395;28;20472;-71
2023/02/02 05:32:24;;;;;;;1999.90;999.90;;;6.30;99.90;;;;;;5093676;28;20115;-71
2023/02/02 05:34:50;;;;;;;1999.90;999.90;;;6.20;99.90;;;;;;5093104;28;20028;-71
2023/02/02 05:37:16;;;;;;;1999.90;999.90;;;6.20;99.90;;;;;;5092799;28;20055;-80
2023/02/02 05:39:41;;;;;;;1999.90;999.90;;;6.20;99.90;;;;;;5093363;28;20017;-80
2023/02/02 05:42:07;;;;;;;1999.90;999.90;;;6.30;99.90;;;;;;5093379;28;20028;-71
2023/02/02 05:44:33;;;;;;;1999.90;999.90;;;6.30;99.90;;;;;;5093144;28;20416;-71
2023/02/02 05:46:59;;;;;;;1999.90;999.90;;;6.40;99.90;;;;;;5092754;28;20040;-71
2023/02/02 05:49:24;;;;;;;1999.90;999.90;;;6.30;99.90;;;;;;5092917;28;20055;-71
2023/02/02 05:51:53;;;;;;;1999.90;999.90;;;6.30;99.90;;;;;;5093309;28;20513;-80
2023/02/02 05:54:19;;;;;;;1999.90;999.90;;;6.40;99.90;;;;;;5092548;28;20027;-79
2023/02/02 05:56:47;;;;;;;1999.90;999.90;;;6.30;99.90;;;;;;5090705;28;20020;-79
2023/02/02 05:59:13;;;;;;;1999.90;999.90;;;6.40;99.90;;;;;;5092573;28;20024;-71
2023/02/02 06:01:38;;;;;;;1999.90;999.90;;;6.40;99.90;;;;;;5076645;28;20031;-80
2023/02/02 06:04:04;;;;;;;1999.90;999.90;;;6.50;99.90;;;;;;5092983;28;20062;-80
2023/02/02 06:06:29;;;;;;;1999.90;999.90;;;6.60;99.90;;;;;;5092460;28;20059;-80
2023/02/02 06:08:55;;;;;;;1999.90;999.90;;;6.60;99.90;;;;;;5092176;28;20424;-71
2023/02/02 06:11:21;;;;;;;1999.90;999.90;;;6.60;99.90;;;;;;5092116;28;20031;-71
2023/02/02 06:13:46;;;;;;;1999.90;999.90;;;6.60;99.90;;;;;;5092654;28;20031;-71
2023/02/02 06:16:12;;;;;;;1999.90;999.90;;;6.50;99.90;;;;;;5092658;28;20043;-71
2023/02/02 06:18:38;;;;;;;1999.90;999.90;;;6.40;99.90;;;;;;5085718;28;20023;-80
2023/02/02 06:21:05;;;;;;;1999.90;999.90;;;6.40;99.90;;;;;;5071801;28;20520;-71
2023/02/02 06:23:31;;;;;;;1999.90;999.90;;;6.40;99.90;;;;;;5072022;28;20021;-73
2023/02/02 06:25:57;;;;;;;1999.90;999.90;;;6.30;99.90;;;;;;5072330;28;20039;-71
2023/02/02 06:28:23;;;;;;;1999.90;999.90;;;6.40;99.90;;;;;;5071871;28;20382;-81
2023/02/02 06:30:49;;;;;;;1999.90;999.90;;;6.30;99.90;;;;;;5071390;28;20043;-71
2023/02/02 06:33:14;;;;;;;1999.90;999.90;;;6.30;99.90;;;;;;5086657;28;20032;-71
2023/02/02 06:35:40;;;;;;;1999.90;999.90;;;6.30;99.90;;;;;;5084474;28;20462;-71
2023/02/02 06:38:06;;;;;;;1999.90;999.90;;;6.30;99.90;;;;;;5060433;28;20029;-78
2023/02/02 06:40:31;;;;;;;1999.90;999.90;;;6.30;99.90;;;;;;5072855;28;20029;-80
2023/02/02 06:42:58;;;;;;;1999.90;999.90;;;6.20;99.90;;;;;;5091028;28;20028;-71
2023/02/02 06:45:25;;;;;;;1999.90;999.90;;;6.20;99.90;;;;;;5087763;28;20097;-71
2023/02/02 06:47:51;;;;;;;1999.90;999.90;;;6.20;99.90;;;;;;5085288;28;20560;-81
2023/02/02 06:50:17;;;;;;;1999.90;999.90;;;6.20;99.90;;;;;;5102940;28;20031;-71
2023/02/02 06:52:48;;;;;;;1999.90;999.90;;;6.30;99.90;;;;;;5094781;28;20408;-79
2023/02/02 06:55:13;;;;;;;1999.90;999.90;;;6.30;99.90;;;;;;5090975;28;20016;-81
2023/02/02 06:57:39;;;;;;;1999.90;999.90;;;6.30;99.90;;;;;;5090597;28;20039;-71
2023/02/02 07:00:05;;;;;;;1999.90;999.90;;;6.30;99.90;;;;;;5091661;28;20161;-71
2023/02/02 07:02:31;;;;;;;1999.90;999.90;;;6.30;99.90;;;;;;5074311;28;20069;-80
2023/02/02 07:04:57;;;;;;;1999.90;999.90;;;6.30;99.90;;;;;;5064304;28;20115;-80
2023/02/02 07:07:22;;;;;;;1999.90;999.90;;;6.30;99.90;;;;;;5087159;28;20028;-80
2023/02/02 07:09:48;;;;;;;1999.90;999.90;;;6.30;99.90;;;;;;5090086;28;20024;-71
2023/02/02 07:12:13;;;;;;;1999.90;999.90;;;6.20;99.90;;;;;;5081702;28;20491;-81
2023/02/02 07:14:39;;;;;;;1999.90;999.90;;;6.30;99.90;;;;;;5086026;28;20032;-71
2023/02/02 07:17:05;;;;;;;1999.90;999.90;;;6.20;99.90;;;;;;5075434;28;20103;-71
2023/02/02 07:19:30;;;;;;;1999.90;999.90;;;6.20;99.90;;;;;;5099866;28;20118;-80
2023/02/02 07:21:56;;;;;;;1999.90;999.90;;;6.20;99.90;;;;;;5087581;28;20028;-70
2023/02/02 07:24:22;;;;;;;1999.90;999.90;;;6.20;99.90;;;;;;5067383;28;20086;-71
2023/02/02 07:26:47;;;;;;;1999.90;999.90;;;6.20;99.90;;;;;;5083721;28;20039;-73
2023/02/02 07:29:13;;;;;;;1999.90;999.90;;;6.20;99.90;;;;;;5077570;28;20048;-80
2023/02/02 07:31:39;;;;;;;1999.90;999.90;;;6.20;99.90;;;;;;5087654;28;20047;-80
2023/02/02 07:34:05;;;;;;;1999.90;999.90;;;6.20;99.90;;;;;;5088939;28;20036;-71
2023/02/02 07:36:31;;;;;;;1999.90;999.90;;;6.20;99.90;;;;;;5075154;28;20043;-72
2023/02/02 07:38:56;;;;;;;1999.90;999.90;;;6.30;99.90;;;;;;5086705;28;20031;-71
2023/02/02 07:41:23;;;;;;;1999.90;999.90;;;6.30;99.90;;;;;;5075696;28;20032;-78
2023/02/02 07:43:49;;;;;;;1999.90;999.90;;;6.30;99.90;;;;;;5087838;28;20073;-71
2023/02/02 07:46:17;;;;;;;1999.90;999.90;;;6.40;99.90;;;;;;5082502;28;20059;-80
2023/02/02 07:48:42;;;;;;;1999.90;999.90;;;6.40;99.90;;;;;;5095923;28;20032;-72
2023/02/02 07:51:11;;;;;;;1999.90;999.90;;;6.40;99.90;;;;;;5091244;28;20039;-71
2023/02/02 07:53:37;;;;;;;1999.90;999.90;;;6.50;99.90;;;;;;5099199;28;20340;-81
2023/02/02 07:56:05;;;;;;;1999.90;999.90;;;6.50;99.90;;;;;;5081344;28;20024;-72
2023/02/02 07:58:31;;;;;;;1999.90;999.90;;;6.60;99.90;;;;;;5085563;28;20420;-80
2023/02/02 08:01:01;;;;;;;1999.90;999.90;;;6.50;99.90;;;;;;5074777;28;20550;-72
2023/02/02 08:03:26;;;;;;;1999.90;999.90;;;6.50;99.90;;;;;;5091962;28;20038;-72
2023/02/02 08:05:52;;;;;;;1999.90;999.90;;;6.60;99.90;;;;;;5091414;28;20092;-72
2023/02/02 08:08:18;;;;;;;1999.90;999.90;;;6.70;99.90;;;;;;5085160;28;20062;-81
2023/02/02 08:10:51;;;;;;;1999.90;999.90;;;6.70;99.90;;;;;;5088338;28;20061;-81
2023/02/02 08:13:16;;;;;;;;;;;6.70;99.90;;;;;;5087767;28;20488;-72
2023/02/02 08:15:42;;;;;;;1999.90;999.90;;;6.80;99.90;;;;;;5084210;28;19941;-72
2023/02/02 08:18:08;;;;;;;1999.90;999.90;;;6.80;99.90;;;;;;5081120;28;20466;-73
2023/02/02 08:20:33;;;;;;;1999.90;999.90;;;6.80;99.90;;;;;;5085694;28;20347;-83
2023/02/02 08:22:59;;;;;;;1999.90;999.90;;;6.90;99.90;;;;;;5081414;28;20048;-72
2023/02/02 08:25:25;;;;;;;1999.90;999.90;;;6.90;99.90;;;;;;5059581;28;20024;-82
2023/02/02 08:27:57;;;;;;;1999.90;999.90;;;6.90;99.90;;;;;;5085904;28;20028;-72
2023/02/02 08:30:23;;;;;;;1999.90;999.90;;;7.00;99.90;;;;;;5074968;28;20030;-72
2023/02/02 08:32:48;;;;;;;1999.90;999.90;;;7.00;99.90;;;;;;5081571;28;20019;-77
2023/02/02 08:35:14;;;;;;;1999.90;999.90;;;7.10;99.90;;;;;;5087506;28;20725;-73
2023/02/02 08:37:40;;;;;;;1999.90;999.90;;;7.10;99.90;;;;;;5077997;28;20117;-84
2023/02/02 08:40:06;;;;;;;1999.90;999.90;;;7.20;99.90;;;;;;5076904;28;20017;-73
2023/02/02 08:42:32;;;;;;;1999.90;999.90;;;7.20;99.90;;;;;;5084006;28;20066;-73
2023/02/02 08:44:57;;;;;;;1999.90;999.90;;;7.30;99.90;;;;;;5081968;28;20044;-82
2023/02/02 08:47:23;;;;;;;1999.90;999.90;;;7.30;99.90;;;;;;5078343;28;20037;-80
2023/02/02 08:49:49;;;;;;;1999.90;999.90;;;7.40;99.90;;;;;;5069062;28;20048;-72
2023/02/02 08:52:14;;;;;;;1999.90;999.90;;;7.40;99.90;;;;;;5071656;28;20178;-73
2023/02/02 08:54:40;;;;;;;1999.90;999.90;;;7.60;99.90;;;;;;5080462;28;20032;-83
2023/02/02 08:57:05;;;;;;;1999.90;999.90;;;7.60;99.90;;;;;;5076557;28;20040;-80
2023/02/02 08:59:31;;;;;;;1999.90;999.90;;;7.70;99.90;;;;;;5074912;28;20055;-81
2023/02/02 09:01:57;;;;;;;1999.90;999.90;;;7.80;99.90;;;;;;5090176;28;20110;-80
2023/02/02 09:04:22;;;;;;;1999.90;999.90;;;7.90;99.90;;;;;;5082159;28;20400;-73
2023/02/02 09:06:48;;;;;;;1999.90;999.90;;;8.00;99.90;;;;;;5072043;28;20036;-72
2023/02/02 09:09:15;;;;;;;1999.90;999.90;;;8.10;99.90;;;;;;5082868;28;20023;-74
2023/02/02 09:11:41;;;;;;;1999.90;999.90;;;8.20;99.90;;;;;;5085766;28;20028;-83
2023/02/02 09:14:07;;;;;;;1999.90;999.90;;;8.20;99.90;;;;;;5073822;28;20028;-79
2023/02/02 09:16:34;;;;;;;1999.90;999.90;;;8.30;99.90;;;;;;5075795;28;20040;-81
2023/02/02 09:18:59;;;;;;;1999.90;999.90;;;8.40;99.90;;;;;;5085047;28;20020;-74
2023/02/02 09:21:25;;;;;;;1999.90;999.90;;;8.50;99.90;;;;;;5069114;28;20081;-73
2023/02/02 09:23:54;;;;;;;1999.90;999.90;;;8.50;99.90;;;;;;5078442;28;20080;-83
2023/02/02 09:26:26;;;;;;;1999.90;999.90;;;8.50;99.90;;;;;;5080011;28;20039;-81
2023/02/02 09:29:03;;;;;;;1999.90;999.90;;;8.60;99.90;;;;;;5090298;28;20420;-80
2023/02/02 09:31:32;;;;;;;1999.90;999.90;;;8.70;99.90;;;;;;5068196;28;20561;-74
2023/02/02 09:34:06;;;;;;;1999.90;999.90;;;8.80;99.90;;;;;;5076992;28;20427;-75
2023/02/02 09:36:32;;;;;;;1999.90;999.90;;;8.90;99.90;;;;;;5075245;28;20630;-74
2023/02/02 09:38:58;;;;;;;1999.90;999.90;;;9.10;99.90;;;;;;5083126;28;20016;-74
2023/02/02 09:41:36;;;;;;;1999.90;999.90;;;9.10;99.90;;;;;;5081504;28;20084;-80
2023/02/02 09:44:01;;;;;;;1999.90;999.90;;;9.10;99.90;;;;;;5078083;28;20561;-73
2023/02/02 09:47:17;;;;;;;1999.90;999.90;;;9.10;99.90;;;;;;5081601;28;20131;-71
2023/02/02 09:50:10;;;;;;;1999.90;999.90;;;9.30;99.90;;;;;;5052294;28;20044;-79
2023/02/02 09:52:40;;;;;;;1999.90;999.90;;;9.40;99.90;;;;;;5073791;28;20036;-77
2023/02/02 09:55:29;;;;;;;1999.90;999.90;;;9.50;99.90;;;;;;5076977;28;20028;-72
2023/02/02 09:58:03;;;;;;;1999.90;999.90;;;9.60;99.90;;;;;;5084729;28;20530;-72
2023/02/02 10:00:42;;;;;;;1999.90;999.90;;;9.60;99.90;;;;;;5088353;28;20395;-72
2023/02/02 10:03:33;;;;;;;1999.90;999.90;;;9.70;99.90;;;;;;5089867;28;20035;-78
2023/02/02 10:06:24;;;;;;;1999.90;999.90;;;9.80;99.90;;;;;;5087524;28;20050;-71
2023/02/02 10:09:00;;;;;;;1999.90;999.90;;;9.80;99.90;;;;;;5074473;28;20036;-71
2023/02/02 10:11:52;;;;;;;1999.90;999.90;;;9.90;99.90;;;;;;5081555;28;20031;-72
2023/02/02 10:14:39;;;;;;;1999.90;999.90;;;10.00;99.90;;;;;;5084111;28;20051;-73
2023/02/02 10:17:25;;;;;;;1999.90;999.90;;;10.10;99.90;;;;;;5059927;28;20527;-79
2023/02/02 10:19:56;;;;;;;1999.90;999.90;;;10.20;99.90;;;;;;5070452;28;20785;-72
2023/02/02 10:22:26;;;;;;;1999.90;999.90;;;10.40;99.90;;;;;;5082486;28;20062;-78
2023/02/02 10:24:52;;;;;;;1999.90;999.90;;;10.40;99.90;;;;;;5077385;28;20056;-72
2023/02/02 10:27:29;;;;;;;1999.90;999.90;;;10.50;99.90;;;;;;5077178;28;20077;-71
2023/02/02 10:29:59;;;;;;;1999.90;999.90;;;10.60;99.90;;;;;;5075812;28;20025;-73
2023/02/02 10:32:32;;;;;;;1999.90;999.90;;;10.70;99.90;;;;;;5081291;28;20032;-75
2023/02/02 10:35:16;;;;;;;1999.90;999.90;;;10.80;99.90;;;;;;5074160;28;20091;-77
2023/02/02 10:38:08;;;;;;;1999.90;999.90;;;10.80;99.90;;;;;;5076150;28;20028;-72
2023/02/02 10:40:43;;;;;;;1999.90;999.90;;;10.80;99.90;;;;;;5084186;28;20024;-78
2023/02/02 10:43:46;;;;;;;1999.90;999.90;;;10.90;99.90;;;;;;5051846;28;20679;-76
2023/02/02 10:46:25;;;;;;;1999.90;999.90;;;11.00;99.90;;;;;;5079184;28;20044;-79
2023/02/02 10:49:16;;;;;;;1999.90;999.90;;;10.90;99.90;;;;;;5084056;28;20113;-74
2023/02/02 10:51:58;;;;;;;1999.90;999.90;;;11.00;99.90;;;;;;5078866;28;20070;-73
2023/02/02 10:54:51;;;;;;;1999.90;999.90;;;11.20;99.90;;;;;;5075676;28;20772;-77
2023/02/02 10:57:25;;;;;;;1999.90;999.90;;;11.60;99.90;;;;;;5070918;28;20057;-79
2023/02/02 11:00:20;;;;;;;1999.90;999.90;;;11.60;99.90;;;;;;5065907;28;20283;-72
2023/02/02 11:02:47;;;;;;;1999.90;999.90;;;11.70;99.90;;;;;;5052862;28;20040;-72
2023/02/02 11:08:23;;;;;;;1999.90;999.90;;;11.90;99.90;;;;;;5074315;28;20035;-80
2023/02/02 11:10:54;;;;;;;1999.90;999.90;;;12.00;99.90;;;;;;5076618;28;20455;-76
2023/02/02 11:13:29;;;;;;;1999.90;999.90;;;11.70;99.90;;;;;;5074683;28;20408;-80
2023/02/02 11:16:13;;;;;;;1999.90;999.90;;;11.60;99.90;;;;;;5066282;28;20404;-71
2023/02/02 11:18:40;;;;;;;1999.90;999.90;;;11.50;99.90;;;;;;5083977;28;20036;-78
2023/02/02 11:21:17;;;;;;;1999.90;999.90;;;11.50;99.90;;;;;;5085286;28;20024;-77
2023/02/02 11:23:53;;;;;;;1999.90;999.90;;;11.10;99.90;;;;;;5077313;28;20028;-74
2023/02/02 11:26:18;;;;;;;1999.90;999.90;;;11.00;99.90;;;;;;5072119;28;20479;-77
2023/02/02 11:28:48;;;;;;;1999.90;999.90;;;10.70;99.90;;;;;;5081570;28;20029;-71
2023/02/02 11:31:29;;;;;;;1999.90;999.90;;;10.40;99.90;;;;;;5083041;28;20032;-78
2023/02/02 11:34:08;;;;;;;1999.90;999.90;;;10.30;99.90;;;;;;5076757;28;20020;-77
2023/02/02 11:36:33;;;;;;;1999.90;999.90;;;10.70;99.90;;;;;;5073016;28;20083;-70
2023/02/02 11:39:19;;;;;;;1999.90;999.90;;;10.90;99.90;;;;;;5087834;28;20051;-77
2023/02/02 11:41:45;;;;;;;1999.90;999.90;;;11.20;99.90;;;;;;5071452;28;20048;-70
2023/02/02 11:44:24;;;;;;;1999.90;999.90;;;11.30;99.90;;;;;;5091130;28;20047;-71
2023/02/02 11:46:50;;;;;;;1999.90;999.90;;;11.50;99.90;;;;;;5077553;28;20040;-77
2023/02/02 11:49:18;;;;;;;1999.90;999.90;;;11.50;99.90;;;;;;5089898;28;20027;-71
2023/02/02 11:52:06;;;;;;;1999.90;999.90;;;11.60;99.90;;;;;;5085423;28;20032;-76
2023/02/02 11:54:36;;;;;;;1999.90;999.90;;;12.10;99.90;;;;;;5075832;28;20027;-70
2023/02/02 11:57:07;;;;;;;1999.90;999.90;;;12.40;99.90;;;;;;5079244;28;20044;-73
2023/02/02 11:59:37;;;;;;;1999.90;999.90;;;12.60;99.90;;;;;;5077134;28;20047;-73
2023/02/02 12:02:29;;;;;;;1999.90;999.90;;;12.40;99.90;;;;;;5082627;28;20028;-77
2023/02/02 12:05:14;;;;;;;1999.90;999.90;;;11.80;99.90;;;;;;5074136;28;20462;-72
2023/02/02 12:07:42;;;;;;;1999.90;999.90;;;11.60;99.90;;;;;;5078854;28;20436;-73
2023/02/02 12:10:28;;;;;;;1999.90;999.90;;;11.60;99.90;;;;;;5075965;28;20104;-73
2023/02/02 12:13:12;;;;;;;1999.90;999.90;;;11.80;99.90;;;;;;5084253;28;20027;-73
2023/02/02 12:16:10;;;;;;;1999.90;999.90;;;11.80;99.90;;;;;;5086178;28;20120;-79
2023/02/02 12:18:38;;;;;;;1999.90;999.90;;;11.90;99.90;;;;;;5084161;28;20400;-79
2023/02/02 12:21:06;;;;;;;1999.90;999.90;;;12.00;99.90;;;;;;5086595;28;20028;-72
2023/02/02 12:24:03;;;;;;;1999.90;999.90;;;12.20;99.90;;;;;;5073893;28;20017;-79
2023/02/02 12:26:33;;;;;;;1999.90;999.90;;;11.80;99.90;;;;;;5065911;28;20028;-72
2023/02/02 12:29:25;;;;;;;1999.90;999.90;;;12.00;99.90;;;;;;5075267;28;20099;-73
2023/02/02 12:32:09;;;;;;;1999.90;999.90;;;12.00;99.90;;;;;;5078841;28;20064;-79
2023/02/02 12:35:12;;;;;;;1999.90;999.90;;;11.80;99.90;;;;;;5077727;28;20032;-73